Gilman, Vermont
Current Conditions -  °F | °C
As of 1:52 AM on Saturday 29 Nov 2014 (Local Time) from KHIE Reporting Station
Overcast Overcast  
Wind Chill: 18°   Ceiling: 3200
Heat Index: 18°   Visibility: 10mi
Dew Point: 12°   Wind: 3mph
Humidity: 78%   Direction: 200°SSW
Pressure: 30.17"   Gusts: NA
Location:  44.41°N, 71.72°W
Report Text: KHIE 290652Z AUTO 20003KT 10SM OVC032 M08/M11 A3017 RMK AO2 SLP235 T10781111
Loading
Personal Weather Stations






























Interactive Weather Map New forecast layout! Learn more

10-Day Weather Forecast

Advertisements
Track Severe Weather on mobile